Time;durP1;ratioP1;P1;durP2;ratioP2;P2;SDS_P1;SDS_P2;PMS_P1;PMS_P2;Temp;Humidity;BMP_temperature;BMP_pressure;BME280_temperature;BME280_humidity;BME280_pressure;Samples;Min_cycle;Max_cycle;Signal;HPM_P1;HPM_P2
2022/08/24 00:02:17;;;;;;;47.58;41.90;;;20.40;99.90;;;;;;5053878;28;20047;-71
2022/08/24 00:04:43;;;;;;;50.67;45.28;;;20.30;99.90;;;;;;5053871;28;20041;-72
2022/08/24 00:07:08;;;;;;;52.88;47.17;;;20.40;99.90;;;;;;5053579;28;20043;-72
2022/08/24 00:09:35;;;;;;;53.60;45.95;;;20.20;99.90;;;;;;5043687;28;20036;-72
2022/08/24 00:12:02;;;;;;;49.97;44.42;;;20.40;99.90;;;;;;5052294;28;20045;-71
2022/08/24 00:14:27;;;;;;;52.72;46.67;;;20.20;99.90;;;;;;5052408;28;20507;-71
2022/08/24 00:16:53;;;;;;;50.83;45.33;;;20.20;99.90;;;;;;5052256;28;20071;-72
2022/08/24 00:19:19;;;;;;;49.85;44.47;;;20.40;99.90;;;;;;5052027;28;20410;-72
2022/08/24 00:21:45;;;;;;;54.17;46.13;;;20.10;99.90;;;;;;5052411;28;20045;-72
2022/08/24 00:24:10;;;;;;;54.35;47.70;;;20.30;99.90;;;;;;5052113;28;20158;-72
2022/08/24 00:26:37;;;;;;;51.50;45.92;;;20.20;99.90;;;;;;5052079;28;20131;-71
2022/08/24 00:29:03;;;;;;;52.97;47.03;;;20.20;99.90;;;;;;5053386;28;20049;-72
2022/08/24 00:31:29;;;;;;;52.85;47.10;;;19.90;99.90;;;;;;5051703;28;20079;-72
2022/08/24 00:33:55;;;;;;;52.65;46.47;;;19.90;99.90;;;;;;5052142;28;20037;-72
2022/08/24 00:36:21;;;;;;;52.67;46.88;;;20.10;99.90;;;;;;5051769;28;20509;-71
2022/08/24 00:38:47;;;;;;;52.47;46.28;;;20.10;99.90;;;;;;5043474;28;20491;-71
2022/08/24 00:41:15;;;;;;;58.85;47.13;;;20.10;99.90;;;;;;5052745;28;20059;-72
2022/08/24 00:43:53;;;;;;;53.55;47.50;;;19.90;99.90;;;;;;5052020;28;20069;-72
2022/08/24 00:46:24;;;;;;;52.72;46.72;;;20.10;99.90;;;;;;5051808;28;20372;-72
2022/08/24 00:48:57;;;;;;;52.15;46.47;;;20.00;99.90;;;;;;5051659;28;20434;-72
2022/08/24 00:51:24;;;;;;;;;;;19.80;99.90;;;;;;5052966;28;20084;-72
2022/08/24 00:53:54;;;;;;;57.90;46.33;;;19.70;99.90;;;;;;5052974;28;19964;-71
2022/08/24 00:56:26;;;;;;;53.72;47.05;;;20.10;99.90;;;;;;5051402;28;20033;-72
2022/08/24 00:58:57;;;;;;;51.20;45.58;;;20.00;99.90;;;;;;5052728;28;20041;-71
2022/08/24 01:01:25;;;;;;;52.35;46.47;;;20.00;99.90;;;;;;5051362;28;20043;-72
2022/08/24 01:03:50;;;;;;;52.05;45.35;;;20.10;99.90;;;;;;5052856;28;20123;-71
2022/08/24 01:06:16;;;;;;;50.78;44.85;;;19.70;99.90;;;;;;5052619;28;20120;-72
2022/08/24 01:08:43;;;;;;;50.13;43.05;;;20.10;99.90;;;;;;5052614;28;20056;-72
2022/08/24 01:11:14;;;;;;;52.20;44.35;;;20.00;99.90;;;;;;5050982;28;20486;-72
2022/08/24 01:13:43;;;;;;;49.35;43.35;;;19.80;99.90;;;;;;5052493;28;20075;-72
2022/08/24 01:16:10;;;;;;;49.30;43.90;;;20.00;99.90;;;;;;5052293;28;20120;-72
2022/08/24 01:18:49;;;;;;;50.33;44.25;;;20.00;99.90;;;;;;5051346;28;20029;-72
2022/08/24 01:21:22;;;;;;;51.60;44.90;;;20.10;99.90;;;;;;5051050;28;20059;-72
2022/08/24 01:23:51;;;;;;;50.83;43.95;;;20.20;99.90;;;;;;5051263;28;20095;-72
2022/08/24 01:26:24;;;;;;;48.58;42.58;;;20.10;99.90;;;;;;5050790;28;20037;-72
2022/08/24 01:28:56;;;;;;;50.00;42.50;;;20.00;99.90;;;;;;5050982;28;20036;-72
2022/08/24 01:31:23;;;;;;;49.95;42.25;;;20.10;99.90;;;;;;5050595;28;20097;-72
2022/08/24 01:33:51;;;;;;;49.78;42.13;;;19.90;99.90;;;;;;5052096;28;20040;-72
2022/08/24 01:36:32;;;;;;;45.97;40.65;;;20.00;99.90;;;;;;5050736;28;20483;-72
2022/08/24 01:39:01;;;;;;;46.65;40.10;;;19.80;99.90;;;;;;5052017;28;20033;-71
2022/08/24 01:41:27;;;;;;;43.60;38.47;;;19.80;99.90;;;;;;5050413;28;20387;-71
2022/08/24 01:43:53;;;;;;;43.30;37.80;;;20.00;99.90;;;;;;5050901;28;20045;-72
2022/08/24 01:46:20;;;;;;;39.80;35.40;;;20.00;99.90;;;;;;5050497;28;20041;-73
2022/08/24 01:48:45;;;;;;;40.83;36.45;;;19.70;99.90;;;;;;5051967;28;20033;-72
2022/08/24 01:51:11;;;;;;;40.95;36.75;;;19.90;99.90;;;;;;5051494;28;20077;-73
2022/08/24 01:53:36;;;;;;;38.90;34.80;;;19.80;99.90;;;;;;5050497;28;20037;-73
2022/08/24 01:56:03;;;;;;;41.08;35.30;;;19.50;99.90;;;;;;5050618;28;20032;-73
2022/08/24 01:58:28;;;;;;;39.58;35.38;;;19.70;99.90;;;;;;5033901;28;20390;-73
2022/08/24 02:00:54;;;;;;;42.10;37.58;;;19.50;99.90;;;;;;5049638;28;20044;-73
2022/08/24 02:03:21;;;;;;;41.33;37.13;;;19.50;99.90;;;;;;5050067;28;20559;-72
2022/08/24 02:05:47;;;;;;;40.78;36.53;;;19.80;99.90;;;;;;5050434;28;20051;-73
2022/08/24 02:08:13;;;;;;;49.97;42.25;;;19.80;99.90;;;;;;5050220;28;20047;-72
2022/08/24 02:10:38;;;;;;;45.83;40.80;;;19.80;99.90;;;;;;5049938;28;20469;-73
2022/08/24 02:13:04;;;;;;;46.67;41.63;;;19.50;99.90;;;;;;5050615;28;20045;-73
2022/08/24 02:15:36;;;;;;;52.10;41.55;;;19.60;99.90;;;;;;5033699;28;20483;-72
2022/08/24 02:18:03;;;;;;;50.78;41.83;;;19.80;99.90;;;;;;5050269;28;20045;-73
2022/08/24 02:20:29;;;;;;;45.90;40.55;;;19.60;99.90;;;;;;5050240;28;20372;-73
2022/08/24 02:22:55;;;;;;;47.83;41.10;;;19.70;99.90;;;;;;5051469;28;20052;-73
2022/08/24 02:25:22;;;;;;;41.60;37.08;;;19.40;99.90;;;;;;5050182;28;20052;-73
2022/08/24 02:27:49;;;;;;;38.60;33.97;;;19.80;99.90;;;;;;5050090;28;20041;-72
2022/08/24 02:30:16;;;;;;;37.05;33.00;;;19.70;99.90;;;;;;5049842;28;20048;-73
2022/08/24 02:32:41;;;;;;;38.08;34.05;;;19.50;99.90;;;;;;5050114;28;20037;-73
2022/08/24 02:35:08;;;;;;;35.80;32.15;;;19.30;99.90;;;;;;5050066;28;20124;-72
2022/08/24 02:37:34;;;;;;;36.25;32.30;;;19.30;99.90;;;;;;5051476;28;20037;-72
2022/08/24 02:40:00;;;;;;;34.55;30.80;;;19.30;99.90;;;;;;5049779;28;20048;-72
2022/08/24 02:42:26;;;;;;;35.08;31.38;;;19.30;99.90;;;;;;5051425;28;20116;-74
2022/08/24 02:44:52;;;;;;;34.60;31.17;;;19.20;99.90;;;;;;5049955;28;20153;-72
2022/08/24 02:47:17;;;;;;;28.98;26.20;;;19.40;99.90;;;;;;5051122;28;20037;-73
2022/08/24 02:49:43;;;;;;;25.50;23.15;;;19.40;99.90;;;;;;5049615;28;20415;-72
2022/08/24 02:52:09;;;;;;;26.98;23.80;;;19.30;99.90;;;;;;5049962;28;20044;-72
2022/08/24 02:54:34;;;;;;;23.25;20.75;;;19.20;99.90;;;;;;5050126;28;20076;-72
2022/08/24 02:57:00;;;;;;;21.50;19.40;;;19.30;99.90;;;;;;5051094;28;20491;-73
2022/08/24 02:59:26;;;;;;;21.52;19.52;;;19.30;99.90;;;;;;5049594;28;20478;-73
2022/08/24 03:01:52;;;;;;;19.38;17.55;;;19.20;99.90;;;;;;5051155;28;20118;-73
2022/08/24 03:04:18;;;;;;;16.30;14.90;;;19.00;99.90;;;;;;5050038;28;20076;-73
2022/08/24 03:06:44;;;;;;;14.95;13.65;;;18.90;99.90;;;;;;5049790;28;20072;-73
2022/08/24 03:09:10;;;;;;;15.63;14.23;;;19.10;99.90;;;;;;5049663;28;20101;-73
2022/08/24 03:11:36;;;;;;;16.02;14.50;;;19.00;99.90;;;;;;5050845;28;20562;-73
2022/08/24 03:14:02;;;;;;;22.85;20.65;;;19.20;99.90;;;;;;5052569;28;20072;-72
2022/08/24 03:16:29;;;;;;;24.02;21.80;;;19.10;99.90;;;;;;5053393;28;20043;-73
2022/08/24 03:18:54;;;;;;;24.10;21.67;;;18.80;99.90;;;;;;5053551;28;20579;-73
2022/08/24 03:21:20;;;;;;;23.40;21.30;;;19.10;99.90;;;;;;5053032;28;20037;-73
2022/08/24 03:23:46;;;;;;;22.45;20.45;;;18.70;99.90;;;;;;5054569;28;20119;-73
2022/08/24 03:26:12;;;;;;;20.98;19.17;;;18.70;99.90;;;;;;5053245;28;20033;-73
2022/08/24 03:28:38;;;;;;;20.88;19.08;;;18.80;99.90;;;;;;5036644;28;20090;-73
2022/08/24 03:31:04;;;;;;;21.70;19.80;;;18.80;99.90;;;;;;5054045;28;20392;-73
2022/08/24 03:33:29;;;;;;;21.85;20.00;;;18.70;99.90;;;;;;5054287;28;20517;-73
2022/08/24 03:35:55;;;;;;;22.60;20.67;;;18.50;99.90;;;;;;5053234;28;20040;-74
2022/08/24 03:38:21;;;;;;;22.95;20.95;;;18.70;99.90;;;;;;5052995;28;20051;-73
2022/08/24 03:40:47;;;;;;;23.10;21.15;;;18.70;99.90;;;;;;5052705;28;20044;-73
2022/08/24 03:43:44;;;;;;;24.00;21.90;;;18.80;99.90;;;;;;5052935;28;20522;-73
2022/08/24 03:46:01;;;;;;;22.10;20.10;;;18.50;99.90;;;;;;5053799;28;20040;-74
2022/08/24 03:48:28;;;;;;;21.88;19.98;;;18.70;99.90;;;;;;5052885;28;20499;-73
2022/08/24 03:50:54;;;;;;;23.00;20.90;;;18.50;99.90;;;;;;5053882;28;20049;-73
2022/08/24 03:53:20;;;;;;;23.80;21.70;;;18.80;99.90;;;;;;5052697;28;20037;-73
2022/08/24 03:55:46;;;;;;;22.13;20.23;;;18.70;99.90;;;;;;5053905;28;20041;-73
2022/08/24 03:58:12;;;;;;;25.05;22.55;;;18.50;99.90;;;;;;5052552;28;20501;-72
2022/08/24 04:00:41;;;;;;;26.42;23.65;;;18.40;99.90;;;;;;5053534;28;20041;-73
2022/08/24 04:03:08;;;;;;;28.58;25.88;;;18.40;99.90;;;;;;5052679;28;20052;-73
2022/08/24 04:05:34;;;;;;;28.42;25.73;;;18.30;99.90;;;;;;5053989;28;20041;-73
2022/08/24 04:08:00;;;;;;;27.75;25.05;;;18.50;99.90;;;;;;5052340;28;20040;-73
2022/08/24 04:10:26;;;;;;;26.58;24.10;;;18.50;99.90;;;;;;5052177;28;20039;-74
2022/08/24 04:12:51;;;;;;;25.63;23.25;;;18.60;99.90;;;;;;5052320;28;20124;-73
2022/08/24 04:15:17;;;;;;;24.52;22.20;;;18.60;99.90;;;;;;5052297;28;20045;-73
2022/08/24 04:17:43;;;;;;;22.88;20.88;;;18.30;99.90;;;;;;5035903;28;20040;-73
2022/08/24 04:20:09;;;;;;;23.08;20.90;;;18.50;99.90;;;;;;5053395;28;20585;-73
2022/08/24 04:22:35;;;;;;;22.65;20.65;;;18.40;99.90;;;;;;5053438;28;20396;-73
2022/08/24 04:25:01;;;;;;;21.80;19.88;;;18.30;99.90;;;;;;5051105;28;20519;-73
2022/08/24 04:27:27;;;;;;;22.85;20.85;;;18.30;99.90;;;;;;5035378;28;20570;-73
2022/08/24 04:29:53;;;;;;;22.55;20.65;;;18.20;99.90;;;;;;5051649;28;20147;-73
2022/08/24 04:32:18;;;;;;;23.02;20.98;;;18.30;99.90;;;;;;5051947;28;20048;-73
2022/08/24 04:34:45;;;;;;;22.92;21.02;;;18.10;99.90;;;;;;5051991;28;20041;-73
2022/08/24 04:37:12;;;;;;;27.30;24.80;;;18.30;99.90;;;;;;5051763;28;20094;-73
2022/08/24 04:39:38;;;;;;;24.40;22.13;;;18.30;99.90;;;;;;5051546;28;20120;-73
2022/08/24 04:42:04;;;;;;;25.15;22.83;;;18.00;99.90;;;;;;5053152;28;20063;-73
2022/08/24 04:44:30;;;;;;;23.98;21.88;;;18.00;99.90;;;;;;5051785;28;20537;-73
2022/08/24 04:46:56;;;;;;;25.30;22.92;;;18.30;99.90;;;;;;5052760;28;20041;-73
2022/08/24 04:49:22;;;;;;;25.95;23.63;;;18.20;99.90;;;;;;5052856;28;20062;-73
2022/08/24 04:51:47;;;;;;;24.80;22.70;;;18.30;99.90;;;;;;5051650;28;20037;-73
2022/08/24 04:54:13;;;;;;;24.00;21.75;;;18.30;99.90;;;;;;5051573;28;20044;-74
2022/08/24 04:56:38;;;;;;;24.58;22.42;;;18.30;99.90;;;;;;5052827;28;20033;-73
2022/08/24 04:59:05;;;;;;;25.40;22.98;;;18.10;99.90;;;;;;5052659;28;20037;-73
2022/08/24 05:01:34;;;;;;;25.30;23.10;;;18.30;99.90;;;;;;5052728;28;20120;-73
2022/08/24 05:04:00;;;;;;;24.67;22.38;;;18.30;99.90;;;;;;5051389;28;20505;-73
2022/08/24 05:06:28;;;;;;;24.98;22.88;;;18.30;99.90;;;;;;5051311;28;20055;-73
2022/08/24 05:08:55;;;;;;;25.30;22.90;;;18.20;99.90;;;;;;5051538;28;20402;-73
2022/08/24 05:11:22;;;;;;;27.75;25.23;;;18.20;99.90;;;;;;5052244;28;20045;-73
2022/08/24 05:13:51;;;;;;;25.58;23.27;;;18.30;99.90;;;;;;5052800;28;20048;-73
2022/08/24 05:16:17;;;;;;;25.52;23.10;;;18.50;99.90;;;;;;5052404;28;20040;-73
2022/08/24 05:18:43;;;;;;;26.83;24.25;;;18.70;99.90;;;;;;5051171;28;20041;-73
2022/08/24 05:21:12;;;;;;;32.22;26.48;;;18.50;99.90;;;;;;5050805;28;20053;-73
2022/08/24 05:23:39;;;;;;;28.38;25.60;;;18.90;99.90;;;;;;5051112;28;20048;-73
2022/08/24 05:26:11;;;;;;;27.10;24.38;;;18.90;99.90;;;;;;5050927;28;20544;-73
2022/08/24 05:28:38;;;;;;;25.02;22.55;;;18.90;99.90;;;;;;5051008;28;20124;-73
2022/08/24 05:31:12;;;;;;;24.05;21.85;;;18.90;99.90;;;;;;5033868;28;20048;-74
2022/08/24 05:33:37;;;;;;;23.38;21.02;;;19.00;99.90;;;;;;5052351;28;20456;-73
2022/08/24 05:36:05;;;;;;;24.65;22.42;;;19.20;99.90;;;;;;5034170;28;20076;-73
2022/08/24 05:38:32;;;;;;;24.15;22.02;;;19.50;99.90;;;;;;5034126;28;20383;-73
2022/08/24 05:41:02;;;;;;;24.33;21.80;;;19.40;99.90;;;;;;5050557;28;20037;-73
2022/08/24 05:43:28;;;;;;;26.27;23.55;;;19.40;99.90;;;;;;5051012;28;20067;-74
2022/08/24 05:45:54;;;;;;;27.92;25.08;;;19.70;99.90;;;;;;5050520;28;20499;-74
2022/08/24 05:48:20;;;;;;;33.15;27.80;;;19.70;99.90;;;;;;5050701;28;20414;-73
2022/08/24 05:50:51;;;;;;;29.65;26.75;;;19.90;99.90;;;;;;5051454;28;20048;-73
2022/08/24 05:53:17;;;;;;;33.20;29.70;;;20.00;99.90;;;;;;5052087;28;20037;-73
2022/08/24 05:55:43;;;;;;;31.60;28.20;;;20.30;99.90;;;;;;5033853;28;20037;-73
2022/08/24 05:58:08;;;;;;;31.65;28.15;;;20.20;99.90;;;;;;5050362;28;20036;-73
2022/08/24 06:00:36;;;;;;;32.15;28.85;;;20.50;99.90;;;;;;5051478;28;20411;-73
2022/08/24 06:03:02;;;;;;;32.80;29.40;;;20.50;99.90;;;;;;5050468;28;20033;-73
2022/08/24 06:05:27;;;;;;;34.70;30.33;;;20.60;99.90;;;;;;5050455;28;20036;-73
2022/08/24 06:07:53;;;;;;;33.72;29.60;;;20.80;99.90;;;;;;5051625;28;20045;-74
2022/08/24 06:10:19;;;;;;;33.15;29.60;;;21.00;99.90;;;;;;5049759;28;20162;-73
2022/08/24 06:12:45;;;;;;;33.50;29.35;;;21.00;99.90;;;;;;5050225;28;20037;-74
2022/08/24 06:15:11;;;;;;;38.80;34.60;;;21.20;99.90;;;;;;5051564;28;20159;-74
2022/08/24 06:17:36;;;;;;;40.47;34.83;;;21.40;99.90;;;;;;5050462;28;20041;-73
2022/08/24 06:20:03;;;;;;;39.53;29.80;;;21.30;99.90;;;;;;5051063;28;20491;-73
2022/08/24 06:22:28;;;;;;;35.08;31.58;;;21.70;99.90;;;;;;5051368;28;20040;-73
2022/08/24 06:27:40;;;;;;;39.72;35.40;;;21.90;99.90;;;;;;5051460;28;20106;-73
2022/08/24 06:30:11;;;;;;;43.53;37.60;;;22.10;99.90;;;;;;5049740;28;20049;-73
2022/08/24 06:32:37;;;;;;;46.75;41.08;;;22.20;99.90;;;;;;5050012;28;20041;-73
2022/08/24 06:35:04;;;;;;;49.55;40.70;;;22.50;99.90;;;;;;5050083;28;20056;-74
2022/08/24 06:37:29;;;;;;;46.13;40.97;;;22.80;99.90;;;;;;5050256;28;20083;-73
2022/08/24 06:39:57;;;;;;;48.65;41.42;;;23.00;99.90;;;;;;5049782;28;20076;-73
2022/08/24 06:42:23;;;;;;;50.80;45.28;;;23.10;99.90;;;;;;5050146;28;20041;-73
2022/08/24 06:44:50;;;;;;;57.30;47.45;;;23.10;99.90;;;;;;5033364;28;20051;-73
2022/08/24 06:47:16;;;;;;;66.22;51.80;;;23.40;99.90;;;;;;5049830;28;20041;-73
2022/08/24 06:49:41;;;;;;;61.47;50.65;;;23.60;99.90;;;;;;5053545;28;20094;-73
2022/08/24 06:52:08;;;;;;;62.33;51.78;;;23.60;99.90;;;;;;5055269;28;20093;-73
2022/08/24 06:54:35;;;;;;;58.42;49.70;;;23.90;99.90;;;;;;5054100;28;20463;-73
2022/08/24 06:57:00;;;;;;;57.50;50.58;;;24.10;99.90;;;;;;5037327;28;20112;-74
2022/08/24 06:59:26;;;;;;;60.15;50.92;;;24.30;99.90;;;;;;5053566;28;20051;-73
2022/08/24 07:01:54;;;;;;;56.22;47.75;;;24.60;99.90;;;;;;5054853;28;20116;-74
2022/08/24 07:04:21;;;;;;;61.53;53.53;;;24.90;99.90;;;;;;5053652;28;20049;-73
2022/08/24 07:06:47;;;;;;;60.50;53.85;;;25.10;99.90;;;;;;5054844;28;20037;-73
2022/08/24 07:09:12;;;;;;;57.25;50.65;;;25.20;99.90;;;;;;5053313;28;20048;-73
2022/08/24 07:11:38;;;;;;;52.72;47.10;;;25.40;99.90;;;;;;5053174;28;20044;-73
2022/08/24 07:14:05;;;;;;;46.65;41.65;;;25.50;99.90;;;;;;5052755;28;20038;-74
2022/08/24 07:16:31;;;;;;;45.85;40.90;;;25.80;99.90;;;;;;5052584;28;20045;-74
2022/08/24 07:18:56;;;;;;;42.20;37.53;;;25.90;99.90;;;;;;5054788;28;20044;-73
2022/08/24 07:21:22;;;;;;;30.92;27.90;;;26.10;99.90;;;;;;5053063;28;20128;-74
2022/08/24 07:23:48;;;;;;;33.08;29.55;;;26.40;99.90;;;;;;5053190;28;20120;-73
2022/08/24 07:26:21;;;;;;;39.42;32.53;;;26.60;99.70;;;;;;5054460;28;20040;-74
2022/08/24 07:29:08;;;;;;;33.13;29.63;;;26.60;98.60;;;;;;5053189;28;20044;-73
2022/08/24 07:31:36;;;;;;;35.83;32.13;;;26.80;98.60;;;;;;5053682;28;20114;-73
2022/08/24 07:34:03;;;;;;;38.67;34.58;;;26.80;98.10;;;;;;5053109;28;20049;-73
2022/08/24 07:36:29;;;;;;;40.90;33.30;;;26.80;97.20;;;;;;5054365;28;20052;-74
2022/08/24 07:38:55;;;;;;;34.28;30.90;;;27.00;97.20;;;;;;5054293;28;20029;-74
2022/08/24 07:41:21;;;;;;;37.28;30.30;;;27.10;96.80;;;;;;5053868;28;20526;-73
2022/08/24 07:43:47;;;;;;;31.75;27.98;;;27.20;96.00;;;;;;5054414;28;20087;-73
2022/08/24 07:46:13;;;;;;;32.03;28.67;;;27.50;95.40;;;;;;5053755;28;20048;-73
2022/08/24 07:48:39;;;;;;;28.08;25.08;;;27.70;95.00;;;;;;5052724;28;20119;-73
2022/08/24 07:51:10;;;;;;;23.27;20.73;;;27.90;95.00;;;;;;5053725;28;20562;-74
2022/08/24 07:53:36;;;;;;;23.40;20.98;;;27.90;94.80;;;;;;5054050;28;20053;-73
2022/08/24 07:56:01;;;;;;;23.60;19.73;;;27.90;93.90;;;;;;5052568;28;20041;-73
2022/08/24 07:58:27;;;;;;;20.92;16.70;;;28.10;93.60;;;;;;5054035;28;20041;-73
2022/08/24 08:00:53;;;;;;;19.75;17.35;;;28.20;92.80;;;;;;5053783;28;20060;-73
2022/08/24 08:03:18;;;;;;;15.25;13.25;;;28.20;92.30;;;;;;5053832;28;20033;-73
2022/08/24 08:05:44;;;;;;;18.05;12.43;;;28.50;92.00;;;;;;5052530;28;20488;-73
2022/08/24 08:08:10;;;;;;;17.33;11.70;;;28.70;91.40;;;;;;5053572;28;20037;-73
2022/08/24 08:10:37;;;;;;;12.93;11.18;;;28.80;90.90;;;;;;5053347;28;20044;-73
2022/08/24 08:13:04;;;;;;;12.77;11.50;;;29.00;90.70;;;;;;5053874;28;20045;-73
2022/08/24 08:15:30;;;;;;;13.05;11.68;;;29.20;90.60;;;;;;5053771;28;20376;-73
2022/08/24 08:17:57;;;;;;;12.68;9.07;;;29.30;89.70;;;;;;5052208;28;20495;-73
2022/08/24 08:20:23;;;;;;;15.30;10.82;;;29.30;88.80;;;;;;5053260;28;20079;-73
2022/08/24 08:25:37;;;;;;;11.75;9.07;;;29.30;87.40;;;;;;5053448;28;20558;-73
2022/08/24 08:28:04;;;;;;;12.55;11.25;;;29.40;85.80;;;;;;5052504;28;20041;-73
2022/08/24 08:30:30;;;;;;;9.20;6.78;;;29.20;84.00;;;;;;5052579;28;20087;-73
2022/08/24 08:32:56;;;;;;;8.55;5.55;;;29.50;84.50;;;;;;5051600;28;20045;-73
2022/08/24 08:35:22;;;;;;;13.02;8.80;;;29.50;83.80;;;;;;5053050;28;20036;-73
2022/08/24 08:37:48;;;;;;;13.27;11.13;;;29.50;82.50;;;;;;5052153;28;20037;-73
2022/08/24 08:40:39;;;;;;;14.10;10.38;;;29.60;82.20;;;;;;5051607;28;20037;-72
2022/08/24 08:43:40;;;;;;;13.32;10.15;;;29.60;79.30;;;;;;5053234;28;20578;-73
2022/08/24 08:46:15;;;;;;;11.63;9.55;;;29.50;78.90;;;;;;5048279;28;20037;-74
2022/08/24 08:48:43;;;;;;;13.07;8.73;;;29.50;78.00;;;;;;5046647;28;20055;-72
2022/08/24 08:51:26;;;;;;;11.10;10.00;;;29.70;77.80;;;;;;5049231;28;20048;-73
2022/08/24 08:54:30;;;;;;;10.23;8.55;;;29.60;77.30;;;;;;5051171;28;20037;-73
2022/08/24 08:57:15;;;;;;;12.43;10.43;;;29.60;76.00;;;;;;5050084;28;20037;-73
2022/08/24 09:00:04;;;;;;;12.10;8.02;;;29.60;77.00;;;;;;5051468;28;20048;-73
2022/08/24 09:02:48;;;;;;;9.30;8.30;;;29.80;76.80;;;;;;5051729;28;20037;-74
2022/08/24 09:05:56;;;;;;;9.82;6.60;;;30.10;77.30;;;;;;5051022;28;20445;-73
2022/08/24 09:08:48;;;;;;;9.10;8.00;;;30.20;75.90;;;;;;5034786;28;20037;-73
2022/08/24 09:11:17;;;;;;;7.60;6.63;;;30.10;75.10;;;;;;5050424;28;20045;-73
2022/08/24 09:13:42;;;;;;;10.25;9.20;;;30.20;74.50;;;;;;5051107;28;20413;-73
2022/08/24 09:16:36;;;;;;;9.63;8.60;;;30.00;73.80;;;;;;5050868;28;20033;-73
2022/08/24 09:19:25;;;;;;;10.50;8.45;;;30.10;73.00;;;;;;5052472;28;20040;-73
2022/08/24 09:22:18;;;;;;;10.52;7.63;;;30.10;72.00;;;;;;5051093;28;20048;-73
2022/08/24 09:24:52;;;;;;;9.15;8.20;;;29.80;71.50;;;;;;5049860;28;20057;-73
2022/08/24 09:27:24;;;;;;;10.10;6.40;;;29.80;71.70;;;;;;5052168;28;20137;-73
2022/08/24 09:30:05;;;;;;;11.47;7.30;;;29.90;74.10;;;;;;5050882;28;20186;-73
2022/08/24 09:32:46;;;;;;;10.70;9.55;;;30.00;72.00;;;;;;5052212;28;20048;-72
2022/08/24 09:35:21;;;;;;;12.48;9.60;;;29.80;71.70;;;;;;5052282;28;20119;-73
2022/08/24 09:37:55;;;;;;;9.35;8.45;;;29.60;71.60;;;;;;5052175;28;20037;-74
2022/08/24 09:40:38;;;;;;;9.52;7.63;;;29.60;72.30;;;;;;5051816;28;20037;-73
2022/08/24 09:43:32;;;;;;;11.80;6.72;;;29.60;73.60;;;;;;5050805;28;20536;-73
2022/08/24 09:46:16;;;;;;;7.82;4.70;;;29.80;72.50;;;;;;5050489;28;20124;-73
2022/08/24 09:49:00;;;;;;;7.45;3.80;;;29.80;73.30;;;;;;5052097;28;20098;-73
2022/08/24 09:52:01;;;;;;;6.35;5.22;;;29.90;71.70;;;;;;5033671;28;20041;-73
2022/08/24 09:54:52;;;;;;;8.65;6.75;;;29.90;70.00;;;;;;5051873;28;20124;-73
2022/08/24 09:57:43;;;;;;;7.00;6.35;;;29.90;71.40;;;;;;5049860;28;20509;-73
2022/08/24 10:00:37;;;;;;;9.80;6.32;;;29.90;72.20;;;;;;5050270;28;20044;-73
2022/08/24 10:03:40;;;;;;;10.88;5.72;;;29.70;72.10;;;;;;5051497;28;20052;-73
2022/08/24 10:06:32;;;;;;;10.13;4.93;;;29.70;71.00;;;;;;5051780;28;20037;-73
2022/08/24 10:09:26;;;;;;;7.22;4.70;;;29.60;70.20;;;;;;5051649;28;20068;-73
2022/08/24 10:12:19;;;;;;;7.00;4.90;;;29.40;69.30;;;;;;5050485;28;20570;-73
2022/08/24 10:15:05;;;;;;;6.53;4.00;;;29.20;70.70;;;;;;5051837;28;20048;-73
2022/08/24 10:17:41;;;;;;;10.98;4.53;;;29.30;70.40;;;;;;5051481;28;20090;-73
2022/08/24 10:20:23;;;;;;;6.90;4.65;;;29.30;71.80;;;;;;5051502;28;20043;-73
2022/08/24 10:23:10;;;;;;;8.33;4.57;;;29.20;70.20;;;;;;5052762;28;20087;-74
2022/08/24 10:25:54;;;;;;;5.75;4.55;;;29.10;71.30;;;;;;5054494;28;20044;-73
2022/08/24 10:28:48;;;;;;;7.03;4.72;;;29.10;70.60;;;;;;5054535;28;20041;-74
2022/08/24 10:31:24;;;;;;;7.35;4.50;;;29.00;71.20;;;;;;5054222;28;20060;-73
2022/08/24 10:34:30;;;;;;;5.13;3.38;;;29.10;71.70;;;;;;5055606;28;20037;-73
2022/08/24 10:37:31;;;;;;;9.77;3.28;;;29.20;70.10;;;;;;4989898;28;20081;-73
2022/08/24 10:40:14;;;;;;;3.78;3.00;;;29.20;69.30;;;;;;5046805;28;20095;-74
2022/08/24 10:46:14;;;;;;;6.32;3.17;;;29.30;70.60;;;;;;5008913;28;20048;-73
2022/08/24 10:49:04;;;;;;;3.65;2.50;;;29.40;70.40;;;;;;5054030;28;20107;-73
2022/08/24 10:52:01;;;;;;;3.17;2.50;;;29.40;69.60;;;;;;5053857;28;20405;-73
2022/08/24 10:54:31;;;;;;;4.47;3.20;;;29.50;70.00;;;;;;5043137;28;20045;-73
2022/08/24 10:56:56;;;;;;;4.25;2.40;;;29.50;69.80;;;;;;5055266;28;20041;-74
2022/08/24 10:59:28;;;;;;;5.15;2.40;;;29.50;70.90;;;;;;5054634;28;20182;-73
2022/08/24 11:02:02;;;;;;;4.87;2.83;;;29.60;70.30;;;;;;5055076;28;20056;-73
2022/08/24 11:04:31;;;;;;;3.38;2.72;;;29.50;69.10;;;;;;5055311;28;20155;-74
2022/08/24 11:07:16;;;;;;;6.30;3.20;;;29.60;69.20;;;;;;5053806;28;20143;-74
2022/08/24 11:09:52;;;;;;;4.85;3.17;;;29.60;68.20;;;;;;5037109;28;20041;-74
2022/08/24 11:12:25;;;;;;;5.78;3.28;;;29.60;68.90;;;;;;5053807;28;20048;-75
2022/08/24 11:14:51;;;;;;;4.50;2.50;;;29.50;68.60;;;;;;5055513;28;20041;-73
2022/08/24 11:17:20;;;;;;;3.33;2.15;;;29.60;69.60;;;;;;5054235;28;20068;-74
2022/08/24 11:19:48;;;;;;;4.70;2.10;;;29.50;69.50;;;;;;5054260;28;20064;-73
2022/08/24 11:22:55;;;;;;;4.60;2.30;;;29.50;68.20;;;;;;5051629;28;20048;-73
2022/08/24 11:25:25;;;;;;;3.20;1.95;;;29.60;68.10;;;;;;5053410;28;20078;-74
2022/08/24 11:27:56;;;;;;;3.90;2.00;;;29.30;69.00;;;;;;5054402;28;20045;-73
2022/08/24 11:30:24;;;;;;;3.60;2.65;;;29.30;68.40;;;;;;5054338;28;20040;-74
2022/08/24 11:32:55;;;;;;;6.10;2.40;;;29.40;68.20;;;;;;5053005;28;20499;-73
2022/08/24 11:35:37;;;;;;;3.45;2.25;;;29.40;68.10;;;;;;5052793;28;20033;-73
2022/08/24 11:38:12;;;;;;;5.68;2.03;;;29.50;67.30;;;;;;5053997;28;20025;-73
2022/08/24 11:40:41;;;;;;;3.20;2.30;;;29.60;68.40;;;;;;5050929;28;20041;-73
2022/08/24 11:43:25;;;;;;;3.70;2.33;;;29.70;68.30;;;;;;5053723;28;20621;-72
2022/08/24 11:46:14;;;;;;;4.22;2.17;;;29.70;67.40;;;;;;5053252;28;20052;-75
2022/08/24 11:49:01;;;;;;;3.60;2.33;;;29.60;66.60;;;;;;5053046;28;20422;-73
2022/08/24 11:51:50;;;;;;;2.75;1.88;;;29.60;66.60;;;;;;5053782;28;20120;-73
2022/08/24 11:54:37;;;;;;;1.95;1.65;;;29.60;66.20;;;;;;5053183;28;20403;-75
2022/08/24 11:57:08;;;;;;;4.10;2.33;;;29.60;65.20;;;;;;5054175;28;20048;-73
2022/08/24 11:59:50;;;;;;;6.13;2.15;;;29.50;65.80;;;;;;5052826;28;20048;-73
2022/08/24 12:02:39;;;;;;;3.25;1.70;;;29.50;66.10;;;;;;5052438;28;20033;-73
2022/08/24 12:05:24;;;;;;;3.80;2.15;;;29.60;66.20;;;;;;5051068;28;20052;-73
2022/08/24 12:07:53;;;;;;;4.20;1.42;;;29.70;66.00;;;;;;5052768;28;20124;-74
2022/08/24 12:10:37;;;;;;;2.65;1.10;;;29.70;65.50;;;;;;5053926;28;20091;-73
2022/08/24 12:13:09;;;;;;;7.35;2.03;;;29.80;64.70;;;;;;5052625;28;20481;-73
2022/08/24 12:15:44;;;;;;;5.47;1.88;;;29.90;65.10;;;;;;5052764;28;20047;-73
2022/08/24 12:18:24;;;;;;;3.85;1.90;;;29.90;64.80;;;;;;5054022;28;20044;-73
2022/08/24 12:20:52;;;;;;;3.53;2.08;;;29.80;63.60;;;;;;5053586;28;20045;-74
2022/08/24 12:23:37;;;;;;;2.58;1.55;;;29.80;65.60;;;;;;5053775;28;20041;-73
2022/08/24 12:26:27;;;;;;;2.83;1.80;;;29.80;68.40;;;;;;5053389;28;20040;-73
2022/08/24 12:29:00;;;;;;;7.40;1.98;;;29.80;68.00;;;;;;5052348;28;20505;-72
2022/08/24 12:31:52;;;;;;;2.88;1.63;;;29.70;67.20;;;;;;5053201;28;20040;-72
2022/08/24 12:34:28;;;;;;;4.70;1.63;;;29.70;66.70;;;;;;5052363;28;20112;-73
2022/08/24 12:37:11;;;;;;;4.45;1.60;;;29.60;66.80;;;;;;5052252;28;20045;-73
2022/08/24 12:40:09;;;;;;;2.95;1.80;;;29.50;67.50;;;;;;5053221;28;20073;-74
2022/08/24 12:42:46;;;;;;;5.40;1.80;;;29.30;66.10;;;;;;5053271;28;20045;-75
2022/08/24 12:45:15;;;;;;;4.00;1.70;;;29.50;66.20;;;;;;5051124;28;20048;-72
2022/08/24 12:47:58;;;;;;;4.40;1.60;;;29.60;65.90;;;;;;5052792;28;20049;-75
2022/08/24 12:50:29;;;;;;;2.33;1.40;;;29.70;64.60;;;;;;5051751;28;20049;-72
2022/08/24 12:53:31;;;;;;;3.97;1.35;;;29.70;64.30;;;;;;5051698;28;20133;-73
2022/08/24 12:56:44;;;;;;;3.95;1.80;;;29.90;63.80;;;;;;5051350;28;20098;-73
2022/08/24 12:59:22;;;;;;;2.88;1.50;;;29.80;66.90;;;;;;5006128;28;20052;-73
2022/08/24 13:02:03;;;;;;;2.30;1.63;;;29.90;66.30;;;;;;5051705;28;20152;-73
2022/08/24 13:04:47;;;;;;;3.35;1.60;;;30.00;64.80;;;;;;5052756;28;20083;-72
2022/08/24 13:07:28;;;;;;;3.15;1.45;;;29.90;63.10;;;;;;5052779;28;20033;-73